Аэропорт: Елизово. Петропавловск-Камчатский

ICAO: UHPP

METAR:
2022-01-28 07:30:00
UHPP 280730Z VRB01MPS 9999 SCT040CB BKN094 M06/M11 Q0981 R34L/810160 NOSIG RMK QFE732/0976
METAR:
2022-01-28 04:50:00
TAF UHPP 280450Z 2806/2912 36003G12MPS 3100 -SHSN BKN007 OVC015CB TEMPO 2806/2912 30006G16MPS 0700 +SHSN BLSN VV003